createdAt,value
2019-05-21T00:01:24.831Z,12.87
2019-05-21T00:03:54.772Z,12.70
2019-05-21T00:06:24.698Z,13.80
2019-05-21T00:08:54.586Z,15.70
2019-05-21T00:11:24.588Z,11.80
2019-05-21T00:13:54.490Z,14.37
2019-05-21T00:16:24.336Z,12.57
2019-05-21T00:18:54.224Z,11.70
2019-05-21T00:21:24.212Z,11.97
2019-05-21T00:23:54.137Z,12.73
2019-05-21T00:26:24.072Z,13.87
2019-05-21T00:29:29.452Z,13.27
2019-05-21T00:32:34.851Z,13.30
2019-05-21T00:35:47.654Z,13.73
2019-05-21T00:38:53.529Z,13.40
2019-05-21T00:41:58.862Z,13.67
2019-05-21T00:44:29.664Z,14.03
2019-05-21T00:46:59.585Z,11.93
2019-05-21T00:49:29.582Z,13.37
2019-05-21T00:52:08.006Z,15.90
2019-05-21T00:54:31.082Z,14.17
2019-05-21T00:57:01.035Z,14.73
2019-05-21T00:59:30.970Z,14.07
2019-05-21T01:02:00.893Z,14.50
2019-05-21T01:04:30.903Z,14.07
2019-05-21T01:07:00.839Z,13.00
2019-05-21T01:09:30.809Z,13.37
2019-05-21T01:12:00.820Z,13.27
2019-05-21T01:14:30.866Z,12.80
2019-05-21T01:17:00.807Z,13.97
2019-05-21T01:19:30.693Z,14.57
2019-05-21T01:22:00.616Z,14.37
2019-05-21T01:24:30.567Z,12.13
2019-05-21T01:27:00.525Z,12.80
2019-05-21T01:29:30.417Z,14.70
2019-05-21T01:32:00.262Z,14.47
2019-05-21T01:34:30.241Z,12.47
2019-05-21T01:37:00.234Z,12.77
2019-05-21T01:39:30.195Z,11.97
2019-05-21T01:42:00.197Z,14.90
2019-05-21T01:44:30.098Z,13.07
2019-05-21T01:47:00.011Z,12.37
2019-05-21T01:49:29.999Z,12.13
2019-05-21T01:51:59.885Z,13.10
2019-05-21T01:54:29.830Z,14.60
2019-05-21T01:57:05.320Z,15.83
2019-05-21T01:59:35.217Z,14.37
2019-05-21T02:11:29.759Z,14.63
2019-05-21T02:13:59.648Z,13.60
2019-05-21T02:16:29.563Z,11.93
2019-05-21T02:18:59.507Z,13.27
2019-05-21T02:21:29.488Z,14.00
2019-05-21T02:23:59.420Z,13.90
2019-05-21T02:26:29.324Z,12.33
2019-05-21T02:28:59.192Z,11.90
2019-05-21T02:31:29.156Z,10.00
2019-05-21T02:33:59.113Z,11.33
2019-05-21T02:36:29.040Z,12.50
2019-05-21T02:38:58.968Z,12.23
2019-05-21T02:41:28.898Z,13.90
2019-05-21T02:43:58.854Z,12.83
2019-05-21T02:46:28.838Z,11.33
2019-05-21T02:48:58.769Z,12.07
2019-05-21T02:51:28.639Z,11.40
2019-05-21T02:53:58.582Z,11.77
2019-05-21T02:56:28.591Z,12.73
2019-05-21T02:59:01.760Z,11.57
2019-05-21T03:01:44.303Z,12.87
2019-05-21T03:04:14.190Z,12.27
2019-05-21T03:06:44.149Z,10.47
2019-05-21T03:09:14.150Z,11.40
2019-05-21T03:11:44.114Z,12.30
2019-05-21T03:14:14.088Z,11.43
2019-05-21T03:16:44.051Z,11.70
2019-05-21T03:19:16.697Z,10.07
2019-05-21T03:21:45.572Z,11.43
2019-05-21T03:24:15.559Z,11.07
2019-05-21T03:26:45.490Z,10.53
2019-05-21T03:29:15.449Z,12.23
2019-05-21T03:31:45.405Z,11.77
2019-05-21T03:34:15.365Z,12.00
2019-05-21T03:36:45.306Z,11.90
2019-05-21T03:39:19.071Z,11.73
2019-05-21T03:41:46.809Z,9.40
2019-05-21T03:44:16.843Z,11.57
2019-05-21T03:46:46.785Z,10.67
2019-05-21T03:49:16.752Z,11.27
2019-05-21T03:51:46.684Z,12.00
2019-05-21T03:54:16.599Z,10.90
2019-05-21T03:56:46.483Z,9.60
2019-05-21T03:59:16.390Z,12.30
2019-05-21T04:01:46.320Z,12.23
2019-05-21T04:04:16.252Z,11.17
2019-05-21T04:06:51.751Z,11.17
2019-05-21T04:09:25.661Z,11.70
2019-05-21T04:11:55.639Z,14.10
2019-05-21T04:14:43.739Z,11.90
2019-05-21T04:17:34.571Z,13.50
2019-05-21T04:20:02.986Z,12.00
2019-05-21T04:22:33.030Z,11.40
2019-05-21T04:25:03.022Z,14.43
2019-05-21T04:27:33.438Z,14.07
2019-05-21T04:30:03.365Z,15.40
2019-05-21T04:32:40.469Z,14.57
2019-05-21T04:35:10.464Z,14.67
2019-05-21T04:37:40.492Z,14.80
2019-05-21T04:40:10.599Z,12.80
2019-05-21T04:42:40.559Z,12.17
2019-05-21T04:45:10.869Z,14.50
2019-05-21T04:47:40.846Z,13.87
2019-05-21T04:50:10.871Z,11.63
2019-05-21T04:52:40.828Z,14.37
2019-05-21T04:55:10.841Z,13.90
2019-05-21T04:57:40.837Z,12.50
2019-05-21T05:00:11.587Z,12.73
2019-05-21T05:02:41.615Z,12.33
2019-05-21T05:05:11.731Z,11.83
2019-05-21T05:07:43.232Z,12.43
2019-05-21T05:10:13.292Z,12.33
2019-05-21T05:12:43.344Z,11.53
2019-05-21T05:15:13.407Z,12.67
2019-05-21T05:17:43.467Z,14.03
2019-05-21T05:20:13.558Z,11.73
2019-05-21T05:22:43.541Z,12.37
2019-05-21T05:25:14.232Z,12.77
2019-05-21T05:27:44.233Z,12.00
2019-05-21T05:30:14.623Z,10.70
2019-05-21T05:32:44.555Z,12.63
2019-05-21T05:35:14.627Z,13.27
2019-05-21T05:37:48.566Z,12.57
2019-05-21T05:40:16.305Z,12.23
2019-05-21T05:42:46.285Z,11.93
2019-05-21T05:45:17.746Z,11.00
2019-05-21T05:58:30.947Z,12.13
2019-05-21T06:01:01.025Z,10.03
2019-05-21T06:03:30.974Z,11.13
2019-05-21T06:06:00.953Z,11.33
2019-05-21T06:08:30.845Z,11.40
2019-05-21T06:11:00.795Z,10.20
2019-05-21T06:13:30.813Z,10.17
2019-05-21T06:16:00.759Z,10.53
2019-05-21T06:18:30.625Z,10.33
2019-05-21T06:21:00.568Z,10.27
2019-05-21T06:23:30.455Z,11.83
2019-05-21T06:26:00.673Z,10.80
2019-05-21T06:28:30.585Z,11.80
2019-05-21T06:31:00.458Z,12.10
2019-05-21T06:33:30.208Z,13.57
2019-05-21T06:36:00.036Z,13.23
2019-05-21T06:38:29.939Z,12.23
2019-05-21T06:40:59.701Z,12.80
2019-05-21T06:43:29.469Z,11.73
2019-05-21T06:45:59.263Z,14.87
2019-05-21T06:48:28.977Z,13.80
2019-05-21T06:51:01.373Z,11.77
2019-05-21T06:53:31.065Z,13.90
2019-05-21T06:56:06.622Z,13.00
2019-05-21T06:58:34.147Z,11.50
2019-05-21T07:01:04.043Z,11.00
2019-05-21T07:03:33.730Z,14.53
2019-05-21T07:06:03.441Z,11.87
2019-05-21T07:08:34.991Z,12.13
2019-05-21T07:11:04.578Z,11.63
2019-05-21T07:13:34.848Z,12.97
2019-05-21T07:16:04.670Z,9.73
2019-05-21T07:18:34.957Z,12.30
2019-05-21T07:21:05.537Z,13.90
2019-05-21T07:23:35.320Z,10.47
2019-05-21T07:26:05.199Z,12.27
2019-05-21T07:28:34.884Z,11.90
2019-05-21T07:31:04.672Z,11.33
2019-05-21T07:33:34.513Z,11.70
2019-05-21T07:36:04.453Z,11.83
2019-05-21T07:38:50.251Z,11.13
2019-05-21T07:41:06.118Z,11.67
2019-05-21T07:43:35.887Z,12.53
2019-05-21T07:46:05.718Z,12.53
2019-05-21T07:48:37.285Z,13.00
2019-05-21T07:51:06.994Z,13.43
2019-05-21T07:53:36.758Z,13.60
2019-05-21T07:56:06.511Z,13.80
2019-05-21T07:58:36.298Z,12.83
2019-05-21T08:01:06.136Z,13.00
2019-05-21T08:03:35.857Z,15.00
2019-05-21T08:06:05.941Z,13.87
2019-05-21T08:08:38.719Z,14.03
2019-05-21T08:11:09.725Z,11.37
2019-05-21T08:13:39.551Z,12.17
2019-05-21T08:16:12.340Z,12.63
2019-05-21T08:18:42.017Z,10.90
2019-05-21T08:21:11.762Z,12.90
2019-05-21T08:23:41.540Z,13.20
2019-05-21T08:26:13.988Z,12.77
2019-05-21T08:28:43.703Z,12.37
2019-05-21T08:31:13.475Z,11.80
2019-05-21T08:33:43.250Z,10.97
2019-05-21T08:36:14.744Z,12.97
2019-05-21T08:38:44.439Z,13.50
2019-05-21T08:41:14.280Z,11.53
2019-05-21T08:43:44.071Z,12.83
2019-05-21T08:46:13.774Z,13.47
2019-05-21T08:48:43.463Z,12.67
2019-05-21T08:51:13.344Z,12.50
2019-05-21T08:53:43.096Z,12.50
2019-05-21T08:56:13.004Z,11.63
2019-05-21T08:58:42.771Z,11.67
2019-05-21T09:01:12.568Z,11.93
2019-05-21T09:03:42.426Z,12.67
2019-05-21T09:06:12.184Z,13.33
2019-05-21T09:08:41.889Z,12.97
2019-05-21T09:11:11.719Z,12.20
2019-05-21T09:13:41.491Z,10.87
2019-05-21T09:16:11.170Z,13.47
2019-05-21T09:18:40.892Z,12.60
2019-05-21T09:21:10.734Z,12.63
2019-05-21T09:23:43.240Z,13.17
2019-05-21T09:26:12.987Z,13.87
2019-05-21T09:28:42.722Z,11.13
2019-05-21T09:31:12.482Z,11.63
2019-05-21T09:33:42.262Z,12.10
2019-05-21T09:36:11.964Z,12.10
2019-05-21T09:38:41.724Z,11.90
2019-05-21T09:41:11.450Z,11.17
2019-05-21T09:43:43.946Z,9.93
2019-05-21T09:46:13.790Z,11.53
2019-05-21T09:48:43.514Z,10.70
2019-05-21T09:51:19.770Z,11.60
2019-05-21T09:53:44.994Z,10.13
2019-05-21T09:56:33.249Z,11.30
2019-05-21T09:59:22.646Z,12.03
2019-05-21T10:01:55.526Z,9.60
2019-05-21T10:11:30.325Z,11.53
2019-05-21T10:14:00.461Z,10.53
2019-05-21T10:16:30.191Z,10.47
2019-05-21T10:18:59.979Z,10.60
2019-05-21T10:21:32.648Z,10.63
2019-05-21T10:24:02.586Z,11.83
2019-05-21T10:26:32.514Z,12.43
2019-05-21T10:29:02.219Z,10.47
2019-05-21T10:31:31.905Z,11.23
2019-05-21T10:34:01.714Z,10.93
2019-05-21T10:36:31.836Z,9.33
2019-05-21T10:39:01.783Z,11.67
2019-05-21T10:41:31.639Z,12.77
2019-05-21T10:44:01.408Z,11.60
2019-05-21T10:46:31.104Z,12.10
2019-05-21T10:49:00.852Z,11.30
2019-05-21T10:51:30.625Z,11.60
2019-05-21T10:54:00.343Z,13.47
2019-05-21T10:56:45.176Z,13.63
2019-05-21T10:59:20.611Z,12.63
2019-05-21T11:02:03.786Z,11.23
2019-05-21T11:04:55.899Z,11.27
2019-05-21T11:07:25.659Z,11.43
2019-05-21T11:09:57.616Z,10.50
2019-05-21T11:12:27.314Z,11.80
2019-05-21T11:14:57.087Z,12.87
2019-05-21T11:17:27.113Z,11.70
2019-05-21T11:19:56.871Z,12.43
2019-05-21T11:22:26.880Z,11.00
2019-05-21T11:24:56.653Z,10.67
2019-05-21T11:27:26.411Z,11.80
2019-05-21T11:29:56.133Z,10.97
2019-05-21T11:32:25.832Z,11.53
2019-05-21T11:34:55.821Z,11.47
2019-05-21T11:37:25.729Z,10.90
2019-05-21T11:39:55.494Z,9.97
2019-05-21T11:42:25.557Z,10.00
2019-05-21T11:44:55.484Z,9.10
2019-05-21T11:47:25.248Z,8.93
2019-05-21T11:49:55.032Z,9.73
2019-05-21T11:52:24.761Z,9.77
2019-05-21T11:54:55.978Z,8.90
2019-05-21T11:57:25.985Z,9.63
2019-05-21T11:59:55.714Z,11.07
2019-05-21T12:02:25.546Z,8.57
2019-05-21T12:04:55.279Z,9.60
2019-05-21T12:07:25.023Z,11.30
2019-05-21T12:09:54.811Z,11.83
2019-05-21T12:12:24.559Z,11.37
2019-05-21T12:14:54.434Z,10.10
2019-05-21T12:17:24.154Z,10.47
2019-05-21T12:19:54.280Z,11.47
2019-05-21T12:22:24.042Z,9.77
2019-05-21T12:24:53.948Z,9.83
2019-05-21T12:27:23.732Z,9.80
2019-05-21T12:29:53.724Z,11.83
2019-05-21T12:32:23.700Z,9.87
2019-05-21T12:34:54.138Z,9.50
2019-05-21T12:37:24.714Z,8.90
2019-05-21T12:39:55.275Z,9.60
2019-05-21T12:42:26.241Z,8.87
2019-05-21T12:44:58.284Z,8.93
2019-05-21T12:47:29.888Z,8.23
2019-05-21T12:49:59.653Z,8.97
2019-05-21T12:52:29.510Z,11.60
2019-05-21T12:55:03.866Z,11.40
2019-05-21T12:57:33.738Z,9.93
2019-05-21T13:00:03.652Z,10.30
2019-05-21T13:02:33.534Z,9.30
2019-05-21T13:05:03.485Z,7.70
2019-05-21T13:07:33.277Z,9.50
2019-05-21T13:10:03.416Z,9.80
2019-05-21T13:12:33.283Z,9.60
2019-05-21T13:15:03.078Z,9.50
2019-05-21T13:17:32.915Z,13.00
2019-05-21T13:20:04.093Z,12.03
2019-05-21T13:23:07.920Z,13.17
2019-05-21T13:25:37.616Z,12.70
2019-05-21T13:28:07.330Z,12.27
2019-05-21T13:30:36.998Z,10.47
2019-05-21T13:33:06.800Z,11.30
2019-05-21T13:35:36.894Z,12.87
2019-05-21T13:38:06.717Z,11.50
2019-05-21T13:40:37.130Z,11.80
2019-05-21T13:43:06.832Z,11.57
2019-05-21T13:45:36.494Z,10.20
2019-05-21T13:48:06.414Z,11.00
2019-05-21T13:50:36.072Z,11.57
2019-05-21T13:53:05.732Z,9.67
2019-05-21T13:55:35.606Z,11.00
2019-05-21T13:58:05.698Z,10.60
2019-05-21T14:00:45.304Z,10.93
2019-05-21T14:03:15.683Z,11.37
2019-05-21T14:05:46.059Z,10.03
2019-05-21T14:08:16.958Z,10.70
2019-05-21T14:10:47.543Z,10.73
2019-05-21T14:13:17.325Z,9.47
2019-05-21T14:15:47.124Z,10.40
2019-05-21T14:18:16.891Z,10.07
2019-05-21T14:20:46.740Z,9.13
2019-05-21T14:23:16.494Z,9.13
2019-05-21T14:25:46.333Z,9.30
2019-05-21T14:28:16.199Z,10.40
2019-05-21T14:30:46.094Z,10.80
2019-05-21T14:33:15.784Z,9.80
2019-05-21T14:35:45.501Z,10.27
2019-05-21T14:38:15.267Z,10.10
2019-05-21T14:40:45.146Z,9.40
2019-05-21T14:43:14.899Z,8.97
2019-05-21T14:45:44.690Z,8.80
2019-05-21T14:48:14.567Z,9.53
2019-05-21T14:50:44.519Z,9.57
2019-05-21T14:53:14.309Z,9.30
2019-05-21T14:55:44.312Z,9.93
2019-05-21T14:58:14.046Z,11.23
2019-05-21T15:00:43.780Z,9.47
2019-05-21T15:03:24.970Z,12.73
2019-05-21T15:05:45.242Z,10.50
2019-05-21T15:08:16.657Z,12.30
2019-05-21T15:10:48.857Z,10.90
2019-05-21T15:13:17.993Z,10.53
2019-05-21T15:15:48.963Z,10.63
2019-05-21T15:18:22.085Z,10.53
2019-05-21T15:21:04.572Z,12.17
2019-05-21T15:23:35.193Z,12.67
2019-05-21T15:26:05.309Z,9.80
2019-05-21T15:28:35.423Z,10.47
2019-05-21T15:31:05.243Z,11.30
2019-05-21T15:33:35.080Z,10.13
2019-05-21T15:36:05.053Z,9.67
2019-05-21T15:38:49.600Z,10.37
2019-05-21T15:41:11.965Z,10.47
2019-05-21T15:43:37.625Z,10.57
2019-05-21T15:46:07.405Z,10.73
2019-05-21T15:48:37.084Z,9.50
2019-05-21T15:51:06.981Z,9.40
2019-05-21T15:53:36.768Z,10.50
2019-05-21T15:56:06.495Z,11.07
2019-05-21T15:58:36.261Z,10.03
2019-05-21T16:01:06.013Z,10.50
2019-05-21T16:03:35.817Z,11.27
2019-05-21T16:06:05.847Z,10.07
2019-05-21T16:08:35.659Z,10.17
2019-05-21T16:11:05.852Z,11.57
2019-05-21T16:13:35.657Z,11.13
2019-05-21T16:16:05.435Z,10.93
2019-05-21T16:18:35.125Z,11.40
2019-05-21T16:21:04.839Z,13.00
2019-05-21T16:23:34.533Z,11.63
2019-05-21T16:26:04.351Z,12.77
2019-05-21T16:28:34.255Z,13.40
2019-05-21T16:31:04.009Z,10.93
2019-05-21T16:33:33.829Z,12.83
2019-05-21T16:36:03.671Z,12.87
2019-05-21T16:38:33.417Z,10.67
2019-05-21T16:41:03.825Z,10.73
2019-05-21T16:43:33.621Z,12.67
2019-05-21T16:46:03.405Z,12.30
2019-05-21T16:48:33.266Z,11.23
2019-05-21T16:51:03.274Z,9.87
2019-05-21T16:53:33.872Z,12.63
2019-05-21T16:56:03.849Z,11.53
2019-05-21T16:58:33.545Z,11.20
2019-05-21T17:01:05.289Z,10.20
2019-05-21T17:03:36.620Z,11.83
2019-05-21T17:06:06.357Z,10.77
2019-05-21T17:08:36.122Z,13.53
2019-05-21T17:11:05.855Z,14.00
2019-05-21T17:13:36.398Z,9.57
2019-05-21T17:16:06.179Z,12.13
2019-05-21T17:18:35.916Z,12.73
2019-05-21T17:21:05.594Z,13.67
2019-05-21T17:23:35.304Z,12.87
2019-05-21T17:26:05.091Z,13.53
2019-05-21T17:28:34.758Z,11.73
2019-05-21T17:31:04.918Z,11.30
2019-05-21T17:33:34.719Z,9.57
2019-05-21T17:40:00.857Z,13.23
2019-05-21T17:42:30.612Z,12.90
2019-05-21T17:45:00.770Z,12.20
2019-05-21T17:47:30.636Z,12.70
2019-05-21T17:50:00.516Z,13.47
2019-05-21T17:52:30.353Z,16.13
2019-05-21T17:55:00.127Z,14.13
2019-05-21T17:57:31.602Z,13.63
2019-05-21T18:00:01.657Z,15.17
2019-05-21T18:02:32.334Z,15.03
2019-05-21T18:05:02.680Z,12.33
2019-05-21T18:07:32.793Z,16.17
2019-05-21T18:10:02.846Z,13.57
2019-05-21T18:12:32.721Z,16.20
2019-05-21T18:15:03.252Z,14.97
2019-05-21T18:17:34.020Z,13.33
2019-05-21T18:20:06.392Z,14.03
2019-05-21T18:22:37.508Z,12.93
2019-05-21T18:25:08.056Z,13.67
2019-05-21T18:27:37.863Z,14.67
2019-05-21T18:30:09.646Z,12.33
2019-05-21T18:32:39.643Z,12.13
2019-05-21T18:35:10.068Z,13.20
2019-05-21T18:37:39.947Z,12.93
2019-05-21T18:40:11.366Z,12.00
2019-05-21T18:42:41.179Z,12.97
2019-05-21T18:45:11.226Z,14.83
2019-05-21T18:47:41.189Z,15.27
2019-05-21T18:50:11.093Z,12.80
2019-05-21T18:52:40.940Z,12.60
2019-05-21T18:55:12.322Z,11.43
2019-05-21T18:57:42.263Z,11.87
2019-05-21T19:00:12.585Z,10.87
2019-05-21T19:02:42.331Z,12.67
2019-05-21T19:05:12.288Z,12.67
2019-05-21T19:07:42.060Z,12.10
2019-05-21T19:10:12.678Z,12.37
2019-05-21T19:12:42.695Z,12.43
2019-05-21T19:15:13.854Z,11.47
2019-05-21T19:17:43.748Z,12.83
2019-05-21T19:20:14.352Z,15.97
2019-05-21T19:22:44.438Z,11.83
2019-05-21T19:25:14.266Z,12.80
2019-05-21T19:27:44.023Z,15.70
2019-05-21T19:30:14.174Z,14.33
2019-05-21T19:32:44.077Z,13.43
2019-05-21T19:35:14.100Z,11.87
2019-05-21T19:37:43.952Z,13.20
2019-05-21T19:40:13.962Z,12.77
2019-05-21T19:42:54.466Z,12.27
2019-05-21T19:45:15.893Z,13.07
2019-05-21T19:47:45.807Z,11.83
2019-05-21T19:50:15.901Z,12.53
2019-05-21T19:52:45.662Z,13.30
2019-05-21T19:55:15.670Z,12.60
2019-05-21T19:57:45.876Z,14.27
2019-05-21T20:00:20.736Z,15.33
2019-05-21T20:02:50.641Z,17.50
2019-05-21T20:05:20.821Z,16.13
2019-05-21T20:07:50.732Z,18.13
2019-05-21T20:10:21.221Z,16.50
2019-05-21T20:12:51.627Z,44.05
2019-05-21T20:15:21.395Z,19.02
2019-05-21T20:18:06.225Z,17.53
2019-05-21T20:20:26.098Z,19.63
2019-05-21T20:22:57.871Z,17.53
2019-05-21T20:25:29.497Z,15.87
2019-05-21T20:27:59.496Z,13.57
2019-05-21T20:30:30.651Z,16.17
2019-05-21T20:33:00.710Z,16.20
2019-05-21T20:35:34.193Z,15.30
2019-05-21T20:38:06.096Z,11.70
2019-05-21T20:40:36.673Z,14.70
2019-05-21T20:43:06.782Z,15.73
2019-05-21T20:45:38.729Z,12.07
2019-05-21T20:48:10.505Z,13.83
2019-05-21T20:50:41.696Z,14.43
2019-05-21T20:53:11.548Z,14.10
2019-05-21T20:55:41.749Z,16.13
2019-05-21T20:58:12.276Z,14.03
2019-05-21T21:00:49.439Z,14.57
2019-05-21T21:03:19.576Z,13.77
2019-05-21T21:05:49.800Z,16.57
2019-05-21T21:08:20.643Z,14.93
2019-05-21T21:10:50.582Z,16.30
2019-05-21T21:13:20.627Z,15.87
2019-05-21T21:15:50.611Z,12.87
2019-05-21T21:18:20.812Z,16.97
2019-05-21T21:20:50.712Z,16.00
2019-05-21T21:23:25.367Z,15.80
2019-05-21T21:25:56.631Z,18.93
2019-05-21T21:28:26.686Z,16.63
2019-05-21T21:30:58.782Z,17.13
2019-05-21T21:33:29.162Z,14.33
2019-05-21T21:35:59.991Z,16.57
2019-05-21T21:38:31.590Z,13.77
2019-05-21T21:41:01.589Z,15.53
2019-05-21T21:43:31.461Z,14.80
2019-05-21T21:46:01.371Z,17.33
2019-05-21T21:48:32.334Z,13.63
2019-05-21T21:51:04.471Z,15.27
2019-05-21T21:53:34.691Z,14.80
2019-05-21T21:56:04.508Z,13.03
2019-05-21T21:58:34.445Z,15.87
2019-05-21T22:01:38.848Z,15.80
2019-05-21T22:04:11.762Z,15.70
2019-05-21T22:06:43.897Z,17.20
2019-05-21T22:09:31.205Z,17.97
2019-05-21T22:12:02.494Z,19.10
2019-05-21T22:14:49.139Z,16.47
2019-05-21T22:17:09.462Z,14.90
2019-05-21T22:19:58.536Z,15.87
2019-05-21T22:22:29.490Z,12.30
2019-05-21T22:24:59.320Z,15.03
2019-05-21T22:27:29.219Z,12.50
2019-05-21T22:29:59.361Z,13.03
2019-05-21T22:32:29.398Z,10.83
2019-05-21T22:34:59.318Z,12.50
2019-05-21T22:37:30.428Z,11.80
2019-05-21T22:40:00.287Z,11.70
2019-05-21T22:42:31.750Z,10.33
2019-05-21T22:45:08.087Z,10.20
2019-05-21T22:47:33.153Z,10.30
2019-05-21T22:50:03.052Z,9.47
2019-05-21T22:52:32.991Z,9.83
2019-05-21T22:55:03.030Z,8.53
2019-05-21T22:57:32.861Z,10.50
2019-05-21T23:00:02.902Z,8.43
2019-05-21T23:02:35.205Z,8.17
2019-05-21T23:05:06.550Z,8.00
2019-05-21T23:07:36.467Z,9.63
2019-05-21T23:10:07.341Z,7.17
2019-05-21T23:12:37.951Z,8.57
2019-05-21T23:15:23.627Z,8.50
2019-05-21T23:17:40.520Z,9.37
2019-05-21T23:20:12.568Z,7.50
2019-05-21T23:26:46.970Z,8.50
2019-05-21T23:29:16.980Z,8.27
2019-05-21T23:31:48.063Z,5.57
2019-05-21T23:34:19.521Z,7.00
2019-05-21T23:36:51.408Z,7.23
2019-05-21T23:39:23.716Z,6.77
2019-05-21T23:41:53.626Z,7.43
2019-05-21T23:44:23.880Z,8.50
2019-05-21T23:46:53.984Z,6.37
2019-05-21T23:49:24.182Z,6.70
2019-05-21T23:51:54.093Z,8.37
2019-05-21T23:54:24.010Z,8.93
2019-05-21T23:56:54.092Z,7.23
2019-05-21T23:59:23.975Z,7.47
